sensor_id;sensor_type;location;lat;lon;timestamp;temperature;humidity
18577;DHT22;9418;52.694;13.294;2022-12-29T00:00:07;7.10;23.70
18577;DHT22;9418;52.694;13.294;2022-12-29T00:02:35;7.10;26.80
18577;DHT22;9418;52.694;13.294;2022-12-29T00:05:02;7.20;33.70
18577;DHT22;9418;52.694;13.294;2022-12-29T00:07:28;7.30;35.20
18577;DHT22;9418;52.694;13.294;2022-12-29T00:09:55;7.30;37.50
18577;DHT22;9418;52.694;13.294;2022-12-29T00:12:21;7.30;39.50
18577;DHT22;9418;52.694;13.294;2022-12-29T00:14:48;7.40;43.30
18577;DHT22;9418;52.694;13.294;2022-12-29T00:17:31;7.40;54.70
18577;DHT22;9418;52.694;13.294;2022-12-29T00:19:59;7.40;47.60
18577;DHT22;9418;52.694;13.294;2022-12-29T00:22:43;7.50;47.70
18577;DHT22;9418;52.694;13.294;2022-12-29T00:25:28;7.50;50.10
18577;DHT22;9418;52.694;13.294;2022-12-29T00:28:11;7.50;54.30
18577;DHT22;9418;52.694;13.294;2022-12-29T00:30:59;7.50;54.60
18577;DHT22;9418;52.694;13.294;2022-12-29T00:33:43;7.50;52.60
18577;DHT22;9418;52.694;13.294;2022-12-29T00:36:31;7.50;52.80
18577;DHT22;9418;52.694;13.294;2022-12-29T00:39:01;7.50;54.20
18577;DHT22;9418;52.694;13.294;2022-12-29T00:41:47;7.50;48.70
18577;DHT22;9418;52.694;13.294;2022-12-29T00:44:31;7.50;48.30
18577;DHT22;9418;52.694;13.294;2022-12-29T00:46:58;7.40;46.80
18577;DHT22;9418;52.694;13.294;2022-12-29T00:49:27;7.40;39.50
18577;DHT22;9418;52.694;13.294;2022-12-29T00:51:59;7.40;39.70
18577;DHT22;9418;52.694;13.294;2022-12-29T00:54:26;7.40;42.00
18577;DHT22;9418;52.694;13.294;2022-12-29T00:56:53;7.50;46.30
18577;DHT22;9418;52.694;13.294;2022-12-29T00:59:20;7.50;49.90
18577;DHT22;9418;52.694;13.294;2022-12-29T01:01:49;7.50;51.50
18577;DHT22;9418;52.694;13.294;2022-12-29T01:04:16;7.50;46.60
18577;DHT22;9418;52.694;13.294;2022-12-29T01:06:42;7.50;42.10
18577;DHT22;9418;52.694;13.294;2022-12-29T01:09:11;7.50;37.60
18577;DHT22;9418;52.694;13.294;2022-12-29T01:11:55;7.50;33.60
18577;DHT22;9418;52.694;13.294;2022-12-29T01:14:22;7.40;32.20
18577;DHT22;9418;52.694;13.294;2022-12-29T01:16:49;7.40;27.60
18577;DHT22;9418;52.694;13.294;2022-12-29T01:19:16;7.40;25.40
18577;DHT22;9418;52.694;13.294;2022-12-29T01:21:43;7.40;24.70
18577;DHT22;9418;52.694;13.294;2022-12-29T01:24:11;7.30;22.60
18577;DHT22;9418;52.694;13.294;2022-12-29T01:26:38;7.30;21.30
18577;DHT22;9418;52.694;13.294;2022-12-29T01:29:05;7.30;22.50
18577;DHT22;9418;52.694;13.294;2022-12-29T01:31:31;7.30;22.20
18577;DHT22;9418;52.694;13.294;2022-12-29T01:33:58;7.30;22.40
18577;DHT22;9418;52.694;13.294;2022-12-29T01:36:24;7.30;20.00
18577;DHT22;9418;52.694;13.294;2022-12-29T01:38:51;7.30;73.10
18577;DHT22;9418;52.694;13.294;2022-12-29T01:41:19;7.30;77.40
18577;DHT22;9418;52.694;13.294;2022-12-29T01:43:47;7.40;23.80
18577;DHT22;9418;52.694;13.294;2022-12-29T01:46:20;7.40;25.20
18577;DHT22;9418;52.694;13.294;2022-12-29T01:48:50;7.40;20.00
18577;DHT22;9418;52.694;13.294;2022-12-29T01:51:17;7.40;83.30
18577;DHT22;9418;52.694;13.294;2022-12-29T01:53:45;7.30;89.00
18577;DHT22;9418;52.694;13.294;2022-12-29T01:56:15;7.30;99.90
18577;DHT22;9418;52.694;13.294;2022-12-29T01:58:47;7.30;99.90
18577;DHT22;9418;52.694;13.294;2022-12-29T02:01:15;7.30;99.90
18577;DHT22;9418;52.694;13.294;2022-12-29T02:03:44;7.30;99.90
18577;DHT22;9418;52.694;13.294;2022-12-29T02:06:14;7.30;99.90
18577;DHT22;9418;52.694;13.294;2022-12-29T02:08:43;7.30;99.90
18577;DHT22;9418;52.694;13.294;2022-12-29T02:11:12;7.30;99.90
18577;DHT22;9418;52.694;13.294;2022-12-29T02:13:39;7.20;99.90
18577;DHT22;9418;52.694;13.294;2022-12-29T02:16:20;7.30;99.90
18577;DHT22;9418;52.694;13.294;2022-12-29T02:18:59;7.20;99.90
18577;DHT22;9418;52.694;13.294;2022-12-29T02:21:54;7.20;99.90
18577;DHT22;9418;52.694;13.294;2022-12-29T02:27:50;7.30;99.90
18577;DHT22;9418;52.694;13.294;2022-12-29T02:30:38;7.30;99.90
18577;DHT22;9418;52.694;13.294;2022-12-29T02:33:13;7.30;99.90
18577;DHT22;9418;52.694;13.294;2022-12-29T02:35:45;7.30;99.90
18577;DHT22;9418;52.694;13.294;2022-12-29T02:38:20;7.30;99.90
18577;DHT22;9418;52.694;13.294;2022-12-29T02:40:54;7.40;99.90
18577;DHT22;9418;52.694;13.294;2022-12-29T02:43:26;7.40;81.70
18577;DHT22;9418;52.694;13.294;2022-12-29T02:45:57;7.40;73.80
18577;DHT22;9418;52.694;13.294;2022-12-29T02:48:28;7.40;21.60
18577;DHT22;9418;52.694;13.294;2022-12-29T02:51:00;7.50;26.30
18577;DHT22;9418;52.694;13.294;2022-12-29T02:53:29;7.70;53.00
18577;DHT22;9418;52.694;13.294;2022-12-29T02:56:14;7.70;49.00
18577;DHT22;9418;52.694;13.294;2022-12-29T02:58:41;7.70;51.00
18577;DHT22;9418;52.694;13.294;2022-12-29T03:01:21;7.70;52.30
18577;DHT22;9418;52.694;13.294;2022-12-29T03:04:01;7.80;57.80
18577;DHT22;9418;52.694;13.294;2022-12-29T03:06:34;7.80;63.30
18577;DHT22;9418;52.694;13.294;2022-12-29T03:09:11;7.80;64.20
18577;DHT22;9418;52.694;13.294;2022-12-29T03:11:46;7.90;72.90
18577;DHT22;9418;52.694;13.294;2022-12-29T03:14:37;7.90;73.80
18577;DHT22;9418;52.694;13.294;2022-12-29T03:17:29;8.00;76.80
18577;DHT22;9418;52.694;13.294;2022-12-29T03:20:01;8.00;79.00
18577;DHT22;9418;52.694;13.294;2022-12-29T03:22:32;8.00;84.10
18577;DHT22;9418;52.694;13.294;2022-12-29T03:25:04;8.00;89.20
18577;DHT22;9418;52.694;13.294;2022-12-29T03:27:34;8.10;91.50
18577;DHT22;9418;52.694;13.294;2022-12-29T03:30:04;8.10;92.60
18577;DHT22;9418;52.694;13.294;2022-12-29T03:32:36;8.20;98.60
18577;DHT22;9418;52.694;13.294;2022-12-29T03:35:06;8.20;97.30
18577;DHT22;9418;52.694;13.294;2022-12-29T03:37:36;8.10;93.70
18577;DHT22;9418;52.694;13.294;2022-12-29T03:40:05;8.20;96.30
18577;DHT22;9418;52.694;13.294;2022-12-29T03:42:34;8.30;99.90
18577;DHT22;9418;52.694;13.294;2022-12-29T03:45:02;8.30;99.90
18577;DHT22;9418;52.694;13.294;2022-12-29T03:47:30;8.40;99.90
18577;DHT22;9418;52.694;13.294;2022-12-29T03:49:58;8.50;99.90
18577;DHT22;9418;52.694;13.294;2022-12-29T03:52:25;8.50;99.90
18577;DHT22;9418;52.694;13.294;2022-12-29T03:54:51;8.60;99.90
18577;DHT22;9418;52.694;13.294;2022-12-29T03:57:18;8.70;99.90
18577;DHT22;9418;52.694;13.294;2022-12-29T03:59:44;8.70;99.90
18577;DHT22;9418;52.694;13.294;2022-12-29T04:02:11;8.70;99.90
18577;DHT22;9418;52.694;13.294;2022-12-29T04:04:37;8.80;99.90
18577;DHT22;9418;52.694;13.294;2022-12-29T04:07:05;8.80;99.90
18577;DHT22;9418;52.694;13.294;2022-12-29T04:09:32;8.90;99.90
18577;DHT22;9418;52.694;13.294;2022-12-29T04:11:58;8.90;99.90
18577;DHT22;9418;52.694;13.294;2022-12-29T04:14:25;8.90;99.90
18577;DHT22;9418;52.694;13.294;2022-12-29T04:16:52;8.90;99.90
18577;DHT22;9418;52.694;13.294;2022-12-29T04:19:18;9.00;99.90
18577;DHT22;9418;52.694;13.294;2022-12-29T04:21:45;9.00;99.90
18577;DHT22;9418;52.694;13.294;2022-12-29T04:24:13;9.00;99.90
18577;DHT22;9418;52.694;13.294;2022-12-29T04:26:40;9.10;99.90
18577;DHT22;9418;52.694;13.294;2022-12-29T04:29:07;9.10;99.90
18577;DHT22;9418;52.694;13.294;2022-12-29T04:31:34;9.10;99.90
18577;DHT22;9418;52.694;13.294;2022-12-29T04:34:00;9.20;99.90
18577;DHT22;9418;52.694;13.294;2022-12-29T04:36:27;9.20;99.90
18577;DHT22;9418;52.694;13.294;2022-12-29T04:38:53;9.10;99.90
18577;DHT22;9418;52.694;13.294;2022-12-29T04:41:21;9.10;99.90
18577;DHT22;9418;52.694;13.294;2022-12-29T04:43:48;9.10;99.90
18577;DHT22;9418;52.694;13.294;2022-12-29T04:46:15;9.20;99.90
18577;DHT22;9418;52.694;13.294;2022-12-29T04:48:41;9.10;99.90
18577;DHT22;9418;52.694;13.294;2022-12-29T04:51:08;9.20;99.90
18577;DHT22;9418;52.694;13.294;2022-12-29T04:53:34;9.20;99.90
18577;DHT22;9418;52.694;13.294;2022-12-29T04:56:01;9.20;99.90
18577;DHT22;9418;52.694;13.294;2022-12-29T04:58:29;9.30;99.90
18577;DHT22;9418;52.694;13.294;2022-12-29T05:00:56;9.30;99.90
18577;DHT22;9418;52.694;13.294;2022-12-29T05:03:22;9.40;99.90
18577;DHT22;9418;52.694;13.294;2022-12-29T05:05:49;9.40;99.90
18577;DHT22;9418;52.694;13.294;2022-12-29T05:08:15;9.30;99.90
18577;DHT22;9418;52.694;13.294;2022-12-29T05:10:44;9.40;99.90
18577;DHT22;9418;52.694;13.294;2022-12-29T05:13:11;9.50;99.90
18577;DHT22;9418;52.694;13.294;2022-12-29T05:15:39;9.40;99.90
18577;DHT22;9418;52.694;13.294;2022-12-29T05:18:06;9.50;99.90
18577;DHT22;9418;52.694;13.294;2022-12-29T05:20:32;9.50;99.90
18577;DHT22;9418;52.694;13.294;2022-12-29T05:22:59;9.50;99.90
18577;DHT22;9418;52.694;13.294;2022-12-29T05:25:25;9.60;99.90
18577;DHT22;9418;52.694;13.294;2022-12-29T05:27:52;9.60;99.90
18577;DHT22;9418;52.694;13.294;2022-12-29T05:30:19;9.60;99.90
18577;DHT22;9418;52.694;13.294;2022-12-29T05:32:46;9.50;99.90
18577;DHT22;9418;52.694;13.294;2022-12-29T05:35:13;9.60;99.90
18577;DHT22;9418;52.694;13.294;2022-12-29T05:37:40;9.80;99.90
18577;DHT22;9418;52.694;13.294;2022-12-29T05:40:08;9.70;99.90
18577;DHT22;9418;52.694;13.294;2022-12-29T05:42:34;9.80;99.90
18577;DHT22;9418;52.694;13.294;2022-12-29T05:45:01;9.80;99.90
18577;DHT22;9418;52.694;13.294;2022-12-29T05:47:27;9.80;99.90
18577;DHT22;9418;52.694;13.294;2022-12-29T05:49:55;9.90;99.90
18577;DHT22;9418;52.694;13.294;2022-12-29T05:52:22;9.90;88.90
18577;DHT22;9418;52.694;13.294;2022-12-29T05:54:48;9.90;99.90
18577;DHT22;9418;52.694;13.294;2022-12-29T05:57:15;10.10;75.10
18577;DHT22;9418;52.694;13.294;2022-12-29T05:59:41;10.10;86.60
18577;DHT22;9418;52.694;13.294;2022-12-29T06:02:09;10.10;95.90
18577;DHT22;9418;52.694;13.294;2022-12-29T06:04:35;10.00;98.20
18577;DHT22;9418;52.694;13.294;2022-12-29T06:07:03;10.10;99.90
18577;DHT22;9418;52.694;13.294;2022-12-29T06:09:29;10.00;99.90
18577;DHT22;9418;52.694;13.294;2022-12-29T06:11:56;9.90;99.90
18577;DHT22;9418;52.694;13.294;2022-12-29T06:14:22;9.80;99.90
18577;DHT22;9418;52.694;13.294;2022-12-29T06:16:49;9.90;99.90
18577;DHT22;9418;52.694;13.294;2022-12-29T06:19:16;9.80;99.90
18577;DHT22;9418;52.694;13.294;2022-12-29T06:21:42;9.80;99.90
18577;DHT22;9418;52.694;13.294;2022-12-29T06:24:10;9.90;99.90
18577;DHT22;9418;52.694;13.294;2022-12-29T06:26:37;10.00;99.90
18577;DHT22;9418;52.694;13.294;2022-12-29T06:29:04;10.10;99.90
18577;DHT22;9418;52.694;13.294;2022-12-29T06:31:30;10.10;99.90
18577;DHT22;9418;52.694;13.294;2022-12-29T06:33:57;10.10;99.90
18577;DHT22;9418;52.694;13.294;2022-12-29T06:36:23;10.10;97.80
18577;DHT22;9418;52.694;13.294;2022-12-29T06:38:50;10.20;80.30
18577;DHT22;9418;52.694;13.294;2022-12-29T06:41:19;10.30;24.70
18577;DHT22;9418;52.694;13.294;2022-12-29T06:43:45;10.30;25.30
18577;DHT22;9418;52.694;13.294;2022-12-29T06:46:12;10.30;22.90
18577;DHT22;9418;52.694;13.294;2022-12-29T06:48:38;10.20;21.50
18577;DHT22;9418;52.694;13.294;2022-12-29T06:51:07;10.20;23.70
18577;DHT22;9418;52.694;13.294;2022-12-29T06:53:34;10.30;24.20
18577;DHT22;9418;52.694;13.294;2022-12-29T06:56:00;10.30;25.50
18577;DHT22;9418;52.694;13.294;2022-12-29T06:58:28;10.30;28.00
18577;DHT22;9418;52.694;13.294;2022-12-29T07:00:54;10.30;27.00
18577;DHT22;9418;52.694;13.294;2022-12-29T07:03:21;10.20;23.50
18577;DHT22;9418;52.694;13.294;2022-12-29T07:05:48;10.20;24.30
18577;DHT22;9418;52.694;13.294;2022-12-29T07:08:14;10.20;25.60
18577;DHT22;9418;52.694;13.294;2022-12-29T07:10:41;10.30;27.90
18577;DHT22;9418;52.694;13.294;2022-12-29T07:13:07;10.30;28.20
18577;DHT22;9418;52.694;13.294;2022-12-29T07:15:36;10.30;26.80
18577;DHT22;9418;52.694;13.294;2022-12-29T07:18:02;10.30;27.30
18577;DHT22;9418;52.694;13.294;2022-12-29T07:20:29;10.30;25.50
18577;DHT22;9418;52.694;13.294;2022-12-29T07:22:56;10.20;24.40
18577;DHT22;9418;52.694;13.294;2022-12-29T07:25:22;10.30;80.30
18577;DHT22;9418;52.694;13.294;2022-12-29T07:27:49;10.30;21.50
18577;DHT22;9418;52.694;13.294;2022-12-29T07:30:16;10.30;25.50
18577;DHT22;9418;52.694;13.294;2022-12-29T07:32:44;10.30;25.10
18577;DHT22;9418;52.694;13.294;2022-12-29T07:35:10;10.30;25.30
18577;DHT22;9418;52.694;13.294;2022-12-29T07:37:37;10.30;23.90
18577;DHT22;9418;52.694;13.294;2022-12-29T07:40:05;10.30;22.60
18577;DHT22;9418;52.694;13.294;2022-12-29T07:42:31;10.30;20.80
18577;DHT22;9418;52.694;13.294;2022-12-29T07:44:58;10.30;80.70
18577;DHT22;9418;52.694;13.294;2022-12-29T07:47:25;10.30;91.50
18577;DHT22;9418;52.694;13.294;2022-12-29T07:49:53;10.30;88.70
18577;DHT22;9418;52.694;13.294;2022-12-29T07:52:19;10.30;84.80
18577;DHT22;9418;52.694;13.294;2022-12-29T07:54:46;10.40;79.80
18577;DHT22;9418;52.694;13.294;2022-12-29T07:57:12;10.40;96.50
18577;DHT22;9418;52.694;13.294;2022-12-29T07:59:39;10.40;87.10
18577;DHT22;9418;52.694;13.294;2022-12-29T08:02:06;10.40;96.30
18577;DHT22;9418;52.694;13.294;2022-12-29T08:04:32;10.40;21.50
18577;DHT22;9418;52.694;13.294;2022-12-29T08:07:00;10.50;21.00
18577;DHT22;9418;52.694;13.294;2022-12-29T08:09:27;10.40;74.20
18577;DHT22;9418;52.694;13.294;2022-12-29T08:11:54;10.40;75.80
18577;DHT22;9418;52.694;13.294;2022-12-29T08:14:20;10.50;20.00
18577;DHT22;9418;52.694;13.294;2022-12-29T08:16:47;10.40;21.00
18577;DHT22;9418;52.694;13.294;2022-12-29T08:19:14;10.40;21.60
18577;DHT22;9418;52.694;13.294;2022-12-29T08:21:40;10.50;22.70
18577;DHT22;9418;52.694;13.294;2022-12-29T08:24:09;10.50;75.60
18577;DHT22;9418;52.694;13.294;2022-12-29T08:26:35;10.50;82.20
18577;DHT22;9418;52.694;13.294;2022-12-29T08:29:02;10.40;87.20
18577;DHT22;9418;52.694;13.294;2022-12-29T08:31:29;10.40;99.90
18577;DHT22;9418;52.694;13.294;2022-12-29T08:33:55;10.50;21.40
18577;DHT22;9418;52.694;13.294;2022-12-29T08:36:22;10.50;22.70
18577;DHT22;9418;52.694;13.294;2022-12-29T08:38:48;10.40;79.60
18577;DHT22;9418;52.694;13.294;2022-12-29T08:41:16;10.40;73.90
18577;DHT22;9418;52.694;13.294;2022-12-29T08:43:45;10.40;20.70
18577;DHT22;9418;52.694;13.294;2022-12-29T08:46:12;10.50;22.60
18577;DHT22;9418;52.694;13.294;2022-12-29T08:48:38;10.50;24.30
18577;DHT22;9418;52.694;13.294;2022-12-29T08:51:05;10.50;23.90
18577;DHT22;9418;52.694;13.294;2022-12-29T08:53:33;10.60;28.40
18577;DHT22;9418;52.694;13.294;2022-12-29T08:56:00;10.70;31.80
18577;DHT22;9418;52.694;13.294;2022-12-29T08:58:28;10.70;34.80
18577;DHT22;9418;52.694;13.294;2022-12-29T09:00:55;10.90;40.10
18577;DHT22;9418;52.694;13.294;2022-12-29T09:03:25;11.00;44.90
18577;DHT22;9418;52.694;13.294;2022-12-29T09:05:53;11.00;49.10
18577;DHT22;9418;52.694;13.294;2022-12-29T09:08:21;11.10;51.80
18577;DHT22;9418;52.694;13.294;2022-12-29T09:10:47;11.10;50.50
18577;DHT22;9418;52.694;13.294;2022-12-29T09:13:15;11.00;49.00
18577;DHT22;9418;52.694;13.294;2022-12-29T09:15:43;10.90;46.70
18577;DHT22;9418;52.694;13.294;2022-12-29T09:18:11;10.90;44.60
18577;DHT22;9418;52.694;13.294;2022-12-29T09:20:37;11.00;45.20
18577;DHT22;9418;52.694;13.294;2022-12-29T09:23:04;11.00;49.00
18577;DHT22;9418;52.694;13.294;2022-12-29T09:25:32;11.10;52.00
18577;DHT22;9418;52.694;13.294;2022-12-29T09:27:58;11.20;51.90
18577;DHT22;9418;52.694;13.294;2022-12-29T09:30:27;11.20;54.70
18577;DHT22;9418;52.694;13.294;2022-12-29T09:32:55;11.30;57.60
18577;DHT22;9418;52.694;13.294;2022-12-29T09:35:22;11.60;71.70
18577;DHT22;9418;52.694;13.294;2022-12-29T09:37:48;11.70;74.50
18577;DHT22;9418;52.694;13.294;2022-12-29T09:40:26;11.90;89.00
18577;DHT22;9418;52.694;13.294;2022-12-29T09:43:05;11.80;86.00
18577;DHT22;9418;52.694;13.294;2022-12-29T09:45:38;12.00;87.30
18577;DHT22;9418;52.694;13.294;2022-12-29T09:48:14;12.10;92.40
18577;DHT22;9418;52.694;13.294;2022-12-29T09:50:46;12.50;99.90
18577;DHT22;9418;52.694;13.294;2022-12-29T09:53:18;12.80;99.90
18577;DHT22;9418;52.694;13.294;2022-12-29T09:55:49;12.60;99.90
18577;DHT22;9418;52.694;13.294;2022-12-29T09:58:21;12.60;99.90
18577;DHT22;9418;52.694;13.294;2022-12-29T10:00:54;12.10;99.90
18577;DHT22;9418;52.694;13.294;2022-12-29T10:03:26;11.90;96.40
18577;DHT22;9418;52.694;13.294;2022-12-29T10:05:59;11.80;84.10
18577;DHT22;9418;52.694;13.294;2022-12-29T10:08:33;11.80;81.50
18577;DHT22;9418;52.694;13.294;2022-12-29T10:11:08;11.90;81.10
18577;DHT22;9418;52.694;13.294;2022-12-29T10:13:46;11.90;85.30
18577;DHT22;9418;52.694;13.294;2022-12-29T10:16:17;12.10;92.40
18577;DHT22;9418;52.694;13.294;2022-12-29T10:22:03;12.90;99.90
18577;DHT22;9418;52.694;13.294;2022-12-29T10:24:34;13.10;99.90
18577;DHT22;9418;52.694;13.294;2022-12-29T10:27:05;13.10;99.90
18577;DHT22;9418;52.694;13.294;2022-12-29T10:29:37;13.20;99.90
18577;DHT22;9418;52.694;13.294;2022-12-29T10:32:09;12.90;99.90
18577;DHT22;9418;52.694;13.294;2022-12-29T10:34:39;13.20;99.90
18577;DHT22;9418;52.694;13.294;2022-12-29T10:37:17;13.30;99.90
18577;DHT22;9418;52.694;13.294;2022-12-29T10:39:50;13.40;99.90
18577;DHT22;9418;52.694;13.294;2022-12-29T10:42:25;13.60;99.90
18577;DHT22;9418;52.694;13.294;2022-12-29T10:44:53;13.50;99.90
18577;DHT22;9418;52.694;13.294;2022-12-29T10:47:22;13.00;99.90
18577;DHT22;9418;52.694;13.294;2022-12-29T10:49:50;12.80;99.90
18577;DHT22;9418;52.694;13.294;2022-12-29T10:52:20;12.70;99.90
18577;DHT22;9418;52.694;13.294;2022-12-29T10:54:51;12.60;99.90
18577;DHT22;9418;52.694;13.294;2022-12-29T10:57:26;12.50;99.90
18577;DHT22;9418;52.694;13.294;2022-12-29T10:59:53;12.40;99.90
18577;DHT22;9418;52.694;13.294;2022-12-29T11:02:35;12.50;99.90
18577;DHT22;9418;52.694;13.294;2022-12-29T11:05:11;12.50;99.90
18577;DHT22;9418;52.694;13.294;2022-12-29T11:07:46;12.50;99.90
18577;DHT22;9418;52.694;13.294;2022-12-29T11:10:18;12.50;99.90
18577;DHT22;9418;52.694;13.294;2022-12-29T11:12:55;12.50;99.90
18577;DHT22;9418;52.694;13.294;2022-12-29T11:15:22;12.60;99.90
18577;DHT22;9418;52.694;13.294;2022-12-29T11:17:51;12.60;99.90
18577;DHT22;9418;52.694;13.294;2022-12-29T11:20:30;12.50;99.90
18577;DHT22;9418;52.694;13.294;2022-12-29T11:22:58;12.50;99.90
18577;DHT22;9418;52.694;13.294;2022-12-29T11:25:27;12.50;99.90
18577;DHT22;9418;52.694;13.294;2022-12-29T11:27:59;12.50;99.90
18577;DHT22;9418;52.694;13.294;2022-12-29T11:30:29;12.60;99.90
18577;DHT22;9418;52.694;13.294;2022-12-29T11:32:56;12.60;99.90
18577;DHT22;9418;52.694;13.294;2022-12-29T11:35:31;12.50;99.90
18577;DHT22;9418;52.694;13.294;2022-12-29T11:38:00;12.40;79.90
18577;DHT22;9418;52.694;13.294;2022-12-29T11:40:28;12.30;79.80
18577;DHT22;9418;52.694;13.294;2022-12-29T11:42:56;12.20;67.80
18577;DHT22;9418;52.694;13.294;2022-12-29T11:45:26;12.00;51.50
18577;DHT22;9418;52.694;13.294;2022-12-29T11:47:57;11.80;37.60
18577;DHT22;9418;52.694;13.294;2022-12-29T11:50:26;11.70;28.10
18577;DHT22;9418;52.694;13.294;2022-12-29T11:52:59;11.70;30.30
18577;DHT22;9418;52.694;13.294;2022-12-29T11:55:27;11.70;23.80
18577;DHT22;9418;52.694;13.294;2022-12-29T11:57:58;11.70;28.70
18577;DHT22;9418;52.694;13.294;2022-12-29T12:00:27;11.80;28.30
18577;DHT22;9418;52.694;13.294;2022-12-29T12:02:57;11.70;34.90
18577;DHT22;9418;52.694;13.294;2022-12-29T12:05:30;11.80;47.40
18577;DHT22;9418;52.694;13.294;2022-12-29T12:08:05;11.80;47.00
18577;DHT22;9418;52.694;13.294;2022-12-29T12:10:38;11.80;47.70
18577;DHT22;9418;52.694;13.294;2022-12-29T12:13:17;11.80;44.50
18577;DHT22;9418;52.694;13.294;2022-12-29T12:15:48;11.70;41.60
18577;DHT22;9418;52.694;13.294;2022-12-29T12:18:19;11.60;31.10
18577;DHT22;9418;52.694;13.294;2022-12-29T12:20:51;11.40;88.40
18577;DHT22;9418;52.694;13.294;2022-12-29T12:23:30;11.30;99.90
18577;DHT22;9418;52.694;13.294;2022-12-29T12:26:03;11.20;99.90
18577;DHT22;9418;52.694;13.294;2022-12-29T12:28:37;11.00;99.90
18577;DHT22;9418;52.694;13.294;2022-12-29T12:31:15;10.90;99.90
18577;DHT22;9418;52.694;13.294;2022-12-29T12:33:44;10.70;99.90
18577;DHT22;9418;52.694;13.294;2022-12-29T12:36:30;10.50;99.90
18577;DHT22;9418;52.694;13.294;2022-12-29T12:39:02;10.40;99.90
18577;DHT22;9418;52.694;13.294;2022-12-29T12:41:41;10.30;99.90
18577;DHT22;9418;52.694;13.294;2022-12-29T12:44:12;10.40;99.90
18577;DHT22;9418;52.694;13.294;2022-12-29T12:49:55;10.60;99.90
18577;DHT22;9418;52.694;13.294;2022-12-29T12:52:32;10.80;99.90
18577;DHT22;9418;52.694;13.294;2022-12-29T12:55:10;11.10;99.90
18577;DHT22;9418;52.694;13.294;2022-12-29T12:57:47;11.30;99.90
18577;DHT22;9418;52.694;13.294;2022-12-29T13:00:17;11.20;99.90
18577;DHT22;9418;52.694;13.294;2022-12-29T13:03:01;11.20;99.90
18577;DHT22;9418;52.694;13.294;2022-12-29T13:05:39;11.30;99.90
18577;DHT22;9418;52.694;13.294;2022-12-29T13:08:41;11.60;99.90
18577;DHT22;9418;52.694;13.294;2022-12-29T13:11:18;11.50;28.00
18577;DHT22;9418;52.694;13.294;2022-12-29T13:13:59;11.40;77.80
18577;DHT22;9418;52.694;13.294;2022-12-29T13:16:34;11.30;21.90
18577;DHT22;9418;52.694;13.294;2022-12-29T13:19:08;11.30;20.50
18577;DHT22;9418;52.694;13.294;2022-12-29T13:21:47;11.20;27.10
18577;DHT22;9418;52.694;13.294;2022-12-29T13:24:23;11.20;30.80
18577;DHT22;9418;52.694;13.294;2022-12-29T13:26:56;11.40;32.20
18577;DHT22;9418;52.694;13.294;2022-12-29T13:29:30;11.30;32.40
18577;DHT22;9418;52.694;13.294;2022-12-29T13:32:11;11.20;33.70
18577;DHT22;9418;52.694;13.294;2022-12-29T13:34:45;11.20;31.30
18577;DHT22;9418;52.694;13.294;2022-12-29T13:37:16;11.30;37.50
18577;DHT22;9418;52.694;13.294;2022-12-29T13:39:48;11.20;34.70
18577;DHT22;9418;52.694;13.294;2022-12-29T13:42:19;11.20;31.40
18577;DHT22;9418;52.694;13.294;2022-12-29T13:44:50;11.30;32.30
18577;DHT22;9418;52.694;13.294;2022-12-29T13:47:28;11.40;43.90
18577;DHT22;9418;52.694;13.294;2022-12-29T13:49:56;11.20;36.90
18577;DHT22;9418;52.694;13.294;2022-12-29T13:52:33;11.30;35.50
18577;DHT22;9418;52.694;13.294;2022-12-29T13:55:17;11.20;31.50
18577;DHT22;9418;52.694;13.294;2022-12-29T13:57:50;11.10;22.50
18577;DHT22;9418;52.694;13.294;2022-12-29T14:00:19;11.10;23.50
18577;DHT22;9418;52.694;13.294;2022-12-29T14:03:11;11.00;20.90
18577;DHT22;9418;52.694;13.294;2022-12-29T14:05:42;10.90;99.80
18577;DHT22;9418;52.694;13.294;2022-12-29T14:08:16;10.90;99.90
18577;DHT22;9418;52.694;13.294;2022-12-29T14:10:48;10.90;99.90
18577;DHT22;9418;52.694;13.294;2022-12-29T14:13:17;10.80;99.90
18577;DHT22;9418;52.694;13.294;2022-12-29T14:15:46;10.70;99.90
18577;DHT22;9418;52.694;13.294;2022-12-29T14:18:18;10.70;99.90
18577;DHT22;9418;52.694;13.294;2022-12-29T14:20:52;10.70;99.90
18577;DHT22;9418;52.694;13.294;2022-12-29T14:23:36;10.70;99.90
18577;DHT22;9418;52.694;13.294;2022-12-29T14:26:13;10.60;99.90
18577;DHT22;9418;52.694;13.294;2022-12-29T14:28:43;10.60;99.90
18577;DHT22;9418;52.694;13.294;2022-12-29T14:31:35;10.60;99.90
18577;DHT22;9418;52.694;13.294;2022-12-29T14:34:23;10.50;99.90
18577;DHT22;9418;52.694;13.294;2022-12-29T14:36:54;10.50;99.90
18577;DHT22;9418;52.694;13.294;2022-12-29T14:39:31;10.60;99.90
18577;DHT22;9418;52.694;13.294;2022-12-29T14:42:03;10.60;99.90
18577;DHT22;9418;52.694;13.294;2022-12-29T14:44:33;10.60;99.90
18577;DHT22;9418;52.694;13.294;2022-12-29T14:47:03;10.70;99.90
18577;DHT22;9418;52.694;13.294;2022-12-29T14:49:33;10.50;99.90
18577;DHT22;9418;52.694;13.294;2022-12-29T14:52:07;10.30;99.90
18577;DHT22;9418;52.694;13.294;2022-12-29T14:54:47;10.10;99.90
18577;DHT22;9418;52.694;13.294;2022-12-29T14:57:21;9.90;91.20
18577;DHT22;9418;52.694;13.294;2022-12-29T14:59:54;9.80;46.70
18577;DHT22;9418;52.694;13.294;2022-12-29T15:02:25;9.70;45.10
18577;DHT22;9418;52.694;13.294;2022-12-29T15:04:54;9.60;38.10
18577;DHT22;9418;52.694;13.294;2022-12-29T15:07:27;9.50;39.30
18577;DHT22;9418;52.694;13.294;2022-12-29T15:09:59;9.30;35.30
18577;DHT22;9418;52.694;13.294;2022-12-29T15:12:35;9.10;38.00
18577;DHT22;9418;52.694;13.294;2022-12-29T15:15:17;8.90;36.10
18577;DHT22;9418;52.694;13.294;2022-12-29T15:17:45;8.80;23.40
18577;DHT22;9418;52.694;13.294;2022-12-29T15:20:21;8.70;99.70
18577;DHT22;9418;52.694;13.294;2022-12-29T15:22:50;8.60;99.90
18577;DHT22;9418;52.694;13.294;2022-12-29T15:25:18;8.50;99.90
18577;DHT22;9418;52.694;13.294;2022-12-29T15:27:49;8.40;99.90
18577;DHT22;9418;52.694;13.294;2022-12-29T15:30:17;8.40;99.90
18577;DHT22;9418;52.694;13.294;2022-12-29T15:32:46;8.40;99.90
18577;DHT22;9418;52.694;13.294;2022-12-29T15:35:30;8.30;99.90
18577;DHT22;9418;52.694;13.294;2022-12-29T15:37:58;8.20;99.90
18577;DHT22;9418;52.694;13.294;2022-12-29T15:40:27;8.20;99.90
18577;DHT22;9418;52.694;13.294;2022-12-29T15:43:06;8.10;99.90
18577;DHT22;9418;52.694;13.294;2022-12-29T15:45:35;8.00;99.90
18577;DHT22;9418;52.694;13.294;2022-12-29T15:48:03;8.00;99.90
18577;DHT22;9418;52.694;13.294;2022-12-29T15:50:32;7.90;99.90
18577;DHT22;9418;52.694;13.294;2022-12-29T15:53:00;7.90;99.90
18577;DHT22;9418;52.694;13.294;2022-12-29T15:55:31;7.90;99.90
18577;DHT22;9418;52.694;13.294;2022-12-29T15:58:00;8.00;99.90
18577;DHT22;9418;52.694;13.294;2022-12-29T16:00:29;8.00;99.90
18577;DHT22;9418;52.694;13.294;2022-12-29T16:02:59;8.00;99.90
18577;DHT22;9418;52.694;13.294;2022-12-29T16:05:32;8.00;99.90
18577;DHT22;9418;52.694;13.294;2022-12-29T16:08:00;8.00;99.90